sensor_id;sensor_type;location;lat;lon;timestamp;temperature;humidity
39665;DHT22;26679;50.872;4.332;2023-12-20T00:01:00;19.70;76.80
39665;DHT22;26679;50.872;4.332;2023-12-20T00:03:25;19.70;76.80
39665;DHT22;26679;50.872;4.332;2023-12-20T00:05:50;19.70;76.70
39665;DHT22;26679;50.872;4.332;2023-12-20T00:08:16;19.60;76.90
39665;DHT22;26679;50.872;4.332;2023-12-20T00:10:42;19.60;76.60
39665;DHT22;26679;50.872;4.332;2023-12-20T00:13:08;19.60;76.60
39665;DHT22;26679;50.872;4.332;2023-12-20T00:15:34;19.60;76.60
39665;DHT22;26679;50.872;4.332;2023-12-20T00:17:59;19.50;76.50
39665;DHT22;26679;50.872;4.332;2023-12-20T00:20:26;19.50;76.40
39665;DHT22;26679;50.872;4.332;2023-12-20T00:22:51;19.50;76.40
39665;DHT22;26679;50.872;4.332;2023-12-20T00:25:17;19.40;76.30
39665;DHT22;26679;50.872;4.332;2023-12-20T00:27:43;19.50;76.30
39665;DHT22;26679;50.872;4.332;2023-12-20T00:30:08;19.40;76.30
39665;DHT22;26679;50.872;4.332;2023-12-20T00:32:34;19.40;76.20
39665;DHT22;26679;50.872;4.332;2023-12-20T00:35:00;19.40;76.20
39665;DHT22;26679;50.872;4.332;2023-12-20T00:37:26;19.40;76.10
39665;DHT22;26679;50.872;4.332;2023-12-20T00:39:51;19.30;76.00
39665;DHT22;26679;50.872;4.332;2023-12-20T00:42:17;19.30;76.00
39665;DHT22;26679;50.872;4.332;2023-12-20T00:44:42;19.30;76.00
39665;DHT22;26679;50.872;4.332;2023-12-20T00:47:08;19.30;75.90
39665;DHT22;26679;50.872;4.332;2023-12-20T00:49:33;19.20;75.80
39665;DHT22;26679;50.872;4.332;2023-12-20T00:51:58;19.20;75.80
39665;DHT22;26679;50.872;4.332;2023-12-20T00:54:24;19.20;75.80
39665;DHT22;26679;50.872;4.332;2023-12-20T00:56:49;19.20;75.70
39665;DHT22;26679;50.872;4.332;2023-12-20T00:59:16;19.10;75.70
39665;DHT22;26679;50.872;4.332;2023-12-20T01:01:41;19.20;75.70
39665;DHT22;26679;50.872;4.332;2023-12-20T01:04:07;19.10;75.70
39665;DHT22;26679;50.872;4.332;2023-12-20T01:06:33;19.10;75.60
39665;DHT22;26679;50.872;4.332;2023-12-20T01:08:58;19.10;75.60
39665;DHT22;26679;50.872;4.332;2023-12-20T01:11:23;19.10;75.50
39665;DHT22;26679;50.872;4.332;2023-12-20T01:13:49;19.00;75.50
39665;DHT22;26679;50.872;4.332;2023-12-20T01:16:14;19.00;75.50
39665;DHT22;26679;50.872;4.332;2023-12-20T01:18:40;19.00;75.50
39665;DHT22;26679;50.872;4.332;2023-12-20T01:21:05;19.00;75.40
39665;DHT22;26679;50.872;4.332;2023-12-20T01:23:31;19.00;75.40
39665;DHT22;26679;50.872;4.332;2023-12-20T01:25:57;19.00;75.40
39665;DHT22;26679;50.872;4.332;2023-12-20T01:28:25;18.90;75.30
39665;DHT22;26679;50.872;4.332;2023-12-20T01:30:50;18.90;75.40
39665;DHT22;26679;50.872;4.332;2023-12-20T01:33:15;18.90;75.40
39665;DHT22;26679;50.872;4.332;2023-12-20T01:35:41;18.90;75.30
39665;DHT22;26679;50.872;4.332;2023-12-20T01:38:06;19.00;75.40
39665;DHT22;26679;50.872;4.332;2023-12-20T01:40:32;18.90;75.30
39665;DHT22;26679;50.872;4.332;2023-12-20T01:43:01;18.80;75.20
39665;DHT22;26679;50.872;4.332;2023-12-20T01:45:27;18.80;75.20
39665;DHT22;26679;50.872;4.332;2023-12-20T01:47:52;18.80;75.20
39665;DHT22;26679;50.872;4.332;2023-12-20T01:50:18;18.80;75.20
39665;DHT22;26679;50.872;4.332;2023-12-20T01:52:44;18.70;75.10
39665;DHT22;26679;50.872;4.332;2023-12-20T01:55:09;18.70;75.20
39665;DHT22;26679;50.872;4.332;2023-12-20T01:57:40;18.70;75.20
39665;DHT22;26679;50.872;4.332;2023-12-20T02:00:07;18.70;75.20
39665;DHT22;26679;50.872;4.332;2023-12-20T02:02:34;18.70;75.20
39665;DHT22;26679;50.872;4.332;2023-12-20T02:05:02;18.70;75.20
39665;DHT22;26679;50.872;4.332;2023-12-20T02:07:29;18.60;75.10
39665;DHT22;26679;50.872;4.332;2023-12-20T02:09:56;18.60;75.10
39665;DHT22;26679;50.872;4.332;2023-12-20T02:12:21;18.60;75.10
39665;DHT22;26679;50.872;4.332;2023-12-20T02:14:47;18.60;75.10
39665;DHT22;26679;50.872;4.332;2023-12-20T02:17:13;18.60;75.10
39665;DHT22;26679;50.872;4.332;2023-12-20T02:19:38;18.60;75.10
39665;DHT22;26679;50.872;4.332;2023-12-20T02:22:04;18.50;75.10
39665;DHT22;26679;50.872;4.332;2023-12-20T02:24:30;18.50;75.10
39665;DHT22;26679;50.872;4.332;2023-12-20T02:26:55;18.50;75.10
39665;DHT22;26679;50.872;4.332;2023-12-20T02:29:21;18.50;75.10
39665;DHT22;26679;50.872;4.332;2023-12-20T02:31:46;18.40;75.10
39665;DHT22;26679;50.872;4.332;2023-12-20T02:34:11;18.50;75.10
39665;DHT22;26679;50.872;4.332;2023-12-20T02:36:37;18.40;75.10
39665;DHT22;26679;50.872;4.332;2023-12-20T02:39:02;18.40;75.10
39665;DHT22;26679;50.872;4.332;2023-12-20T02:41:28;18.40;75.00
39665;DHT22;26679;50.872;4.332;2023-12-20T02:43:53;18.30;75.00
39665;DHT22;26679;50.872;4.332;2023-12-20T02:46:19;18.30;75.00
39665;DHT22;26679;50.872;4.332;2023-12-20T02:48:44;18.30;75.00
39665;DHT22;26679;50.872;4.332;2023-12-20T02:51:10;18.30;75.00
39665;DHT22;26679;50.872;4.332;2023-12-20T02:53:35;18.30;75.00
39665;DHT22;26679;50.872;4.332;2023-12-20T02:56:00;18.30;75.00
39665;DHT22;26679;50.872;4.332;2023-12-20T02:58:26;18.30;75.00
39665;DHT22;26679;50.872;4.332;2023-12-20T03:00:51;18.30;75.00
39665;DHT22;26679;50.872;4.332;2023-12-20T03:03:17;18.20;74.90
39665;DHT22;26679;50.872;4.332;2023-12-20T03:05:42;18.20;74.90
39665;DHT22;26679;50.872;4.332;2023-12-20T03:08:08;18.20;74.90
39665;DHT22;26679;50.872;4.332;2023-12-20T03:10:34;18.20;74.90
39665;DHT22;26679;50.872;4.332;2023-12-20T03:12:59;18.20;75.50
39665;DHT22;26679;50.872;4.332;2023-12-20T03:15:24;18.20;75.00
39665;DHT22;26679;50.872;4.332;2023-12-20T03:17:50;18.20;74.90
39665;DHT22;26679;50.872;4.332;2023-12-20T03:20:15;18.20;74.90
39665;DHT22;26679;50.872;4.332;2023-12-20T03:22:41;18.30;75.00
39665;DHT22;26679;50.872;4.332;2023-12-20T03:25:06;18.30;74.80
39665;DHT22;26679;50.872;4.332;2023-12-20T03:27:32;18.30;74.80
39665;DHT22;26679;50.872;4.332;2023-12-20T03:29:57;18.30;74.80
39665;DHT22;26679;50.872;4.332;2023-12-20T03:32:23;18.40;74.70
39665;DHT22;26679;50.872;4.332;2023-12-20T03:34:48;18.40;74.70
39665;DHT22;26679;50.872;4.332;2023-12-20T03:37:14;18.50;74.60
39665;DHT22;26679;50.872;4.332;2023-12-20T03:39:39;18.60;74.50
39665;DHT22;26679;50.872;4.332;2023-12-20T03:42:04;18.70;74.50
39665;DHT22;26679;50.872;4.332;2023-12-20T03:44:30;18.80;74.30
39665;DHT22;26679;50.872;4.332;2023-12-20T03:46:55;18.90;74.20
39665;DHT22;26679;50.872;4.332;2023-12-20T03:49:21;18.90;74.10
39665;DHT22;26679;50.872;4.332;2023-12-20T03:51:46;19.10;74.00
39665;DHT22;26679;50.872;4.332;2023-12-20T03:54:12;19.10;73.90
39665;DHT22;26679;50.872;4.332;2023-12-20T03:56:37;19.20;73.80
39665;DHT22;26679;50.872;4.332;2023-12-20T03:59:03;19.30;73.60
39665;DHT22;26679;50.872;4.332;2023-12-20T04:01:28;19.40;73.50
39665;DHT22;26679;50.872;4.332;2023-12-20T04:03:54;19.50;73.40
39665;DHT22;26679;50.872;4.332;2023-12-20T04:06:19;19.50;73.30
39665;DHT22;26679;50.872;4.332;2023-12-20T04:08:45;19.60;73.20
39665;DHT22;26679;50.872;4.332;2023-12-20T04:11:10;19.70;73.10
39665;DHT22;26679;50.872;4.332;2023-12-20T04:13:36;19.80;73.00
39665;DHT22;26679;50.872;4.332;2023-12-20T04:16:01;19.80;72.90
39665;DHT22;26679;50.872;4.332;2023-12-20T04:18:27;19.90;72.80
39665;DHT22;26679;50.872;4.332;2023-12-20T04:20:53;19.90;72.70
39665;DHT22;26679;50.872;4.332;2023-12-20T04:23:18;20.00;72.70
39665;DHT22;26679;50.872;4.332;2023-12-20T04:25:44;20.00;72.60
39665;DHT22;26679;50.872;4.332;2023-12-20T04:28:10;20.00;72.40
39665;DHT22;26679;50.872;4.332;2023-12-20T04:30:35;20.10;72.40
39665;DHT22;26679;50.872;4.332;2023-12-20T04:33:01;20.10;72.30
39665;DHT22;26679;50.872;4.332;2023-12-20T04:35:27;20.20;72.30
39665;DHT22;26679;50.872;4.332;2023-12-20T04:37:53;20.20;72.20
39665;DHT22;26679;50.872;4.332;2023-12-20T04:40:18;20.20;72.10
39665;DHT22;26679;50.872;4.332;2023-12-20T04:42:43;20.30;72.10
39665;DHT22;26679;50.872;4.332;2023-12-20T04:45:09;20.30;72.00
39665;DHT22;26679;50.872;4.332;2023-12-20T04:47:34;20.30;71.90
39665;DHT22;26679;50.872;4.332;2023-12-20T04:50:00;20.30;71.90
39665;DHT22;26679;50.872;4.332;2023-12-20T04:52:25;20.40;71.80
39665;DHT22;26679;50.872;4.332;2023-12-20T04:54:51;20.40;71.80
39665;DHT22;26679;50.872;4.332;2023-12-20T04:57:17;20.40;71.80
39665;DHT22;26679;50.872;4.332;2023-12-20T04:59:42;20.50;71.70
39665;DHT22;26679;50.872;4.332;2023-12-20T05:02:07;20.50;71.60
39665;DHT22;26679;50.872;4.332;2023-12-20T05:04:33;20.50;71.50
39665;DHT22;26679;50.872;4.332;2023-12-20T05:06:58;20.40;71.50
39665;DHT22;26679;50.872;4.332;2023-12-20T05:09:24;20.50;71.50
39665;DHT22;26679;50.872;4.332;2023-12-20T05:11:49;20.50;71.50
39665;DHT22;26679;50.872;4.332;2023-12-20T05:14:15;20.50;71.50
39665;DHT22;26679;50.872;4.332;2023-12-20T05:16:40;20.50;71.40
39665;DHT22;26679;50.872;4.332;2023-12-20T05:19:06;20.60;71.40
39665;DHT22;26679;50.872;4.332;2023-12-20T05:21:32;20.50;71.30
39665;DHT22;26679;50.872;4.332;2023-12-20T05:23:58;20.60;71.30
39665;DHT22;26679;50.872;4.332;2023-12-20T05:26:24;20.60;71.20
39665;DHT22;26679;50.872;4.332;2023-12-20T05:28:49;20.60;71.20
39665;DHT22;26679;50.872;4.332;2023-12-20T05:31:14;20.60;71.20
39665;DHT22;26679;50.872;4.332;2023-12-20T05:33:40;20.60;71.10
39665;DHT22;26679;50.872;4.332;2023-12-20T05:36:06;20.70;71.10
39665;DHT22;26679;50.872;4.332;2023-12-20T05:38:36;20.70;71.10
39665;DHT22;26679;50.872;4.332;2023-12-20T05:41:02;20.70;71.00
39665;DHT22;26679;50.872;4.332;2023-12-20T05:43:27;20.70;71.00
39665;DHT22;26679;50.872;4.332;2023-12-20T05:45:52;20.70;70.90
39665;DHT22;26679;50.872;4.332;2023-12-20T05:48:18;20.80;70.90
39665;DHT22;26679;50.872;4.332;2023-12-20T05:50:43;20.80;70.90
39665;DHT22;26679;50.872;4.332;2023-12-20T05:53:09;20.80;70.90
39665;DHT22;26679;50.872;4.332;2023-12-20T05:55:34;20.80;70.80
39665;DHT22;26679;50.872;4.332;2023-12-20T05:58:00;20.80;70.70
39665;DHT22;26679;50.872;4.332;2023-12-20T06:00:25;20.80;70.70
39665;DHT22;26679;50.872;4.332;2023-12-20T06:02:51;20.80;70.70
39665;DHT22;26679;50.872;4.332;2023-12-20T06:05:16;20.80;70.60
39665;DHT22;26679;50.872;4.332;2023-12-20T06:07:42;20.90;70.60
39665;DHT22;26679;50.872;4.332;2023-12-20T06:10:07;20.80;70.50
39665;DHT22;26679;50.872;4.332;2023-12-20T06:12:33;20.90;70.50
39665;DHT22;26679;50.872;4.332;2023-12-20T06:15:01;20.90;70.50
39665;DHT22;26679;50.872;4.332;2023-12-20T06:17:26;20.90;70.40
39665;DHT22;26679;50.872;4.332;2023-12-20T06:19:51;20.90;70.40
39665;DHT22;26679;50.872;4.332;2023-12-20T06:22:17;20.90;70.40
39665;DHT22;26679;50.872;4.332;2023-12-20T06:24:42;20.90;70.30
39665;DHT22;26679;50.872;4.332;2023-12-20T06:27:08;20.90;70.30
39665;DHT22;26679;50.872;4.332;2023-12-20T06:29:33;20.90;70.30
39665;DHT22;26679;50.872;4.332;2023-12-20T06:32:00;20.90;70.30
39665;DHT22;26679;50.872;4.332;2023-12-20T06:34:25;20.90;70.30
39665;DHT22;26679;50.872;4.332;2023-12-20T06:36:51;21.00;70.30
39665;DHT22;26679;50.872;4.332;2023-12-20T06:39:16;21.00;70.30
39665;DHT22;26679;50.872;4.332;2023-12-20T06:41:41;21.00;70.20
39665;DHT22;26679;50.872;4.332;2023-12-20T06:44:08;21.00;70.20
39665;DHT22;26679;50.872;4.332;2023-12-20T06:46:33;21.00;70.20
39665;DHT22;26679;50.872;4.332;2023-12-20T06:48:59;21.00;70.30
39665;DHT22;26679;50.872;4.332;2023-12-20T06:51:24;21.00;70.30
39665;DHT22;26679;50.872;4.332;2023-12-20T06:53:51;21.00;70.30
39665;DHT22;26679;50.872;4.332;2023-12-20T06:56:17;21.10;70.40
39665;DHT22;26679;50.872;4.332;2023-12-20T06:58:42;21.10;70.40
39665;DHT22;26679;50.872;4.332;2023-12-20T07:01:11;21.10;70.40
39665;DHT22;26679;50.872;4.332;2023-12-20T07:03:37;21.10;70.50
39665;DHT22;26679;50.872;4.332;2023-12-20T07:06:02;21.10;70.50
39665;DHT22;26679;50.872;4.332;2023-12-20T07:08:28;21.10;70.60
39665;DHT22;26679;50.872;4.332;2023-12-20T07:10:54;21.10;70.60
39665;DHT22;26679;50.872;4.332;2023-12-20T07:13:19;21.10;70.60
39665;DHT22;26679;50.872;4.332;2023-12-20T07:15:45;21.10;70.50
39665;DHT22;26679;50.872;4.332;2023-12-20T07:18:10;21.20;70.50
39665;DHT22;26679;50.872;4.332;2023-12-20T07:20:36;21.10;70.40
39665;DHT22;26679;50.872;4.332;2023-12-20T07:23:01;21.20;70.70
39665;DHT22;26679;50.872;4.332;2023-12-20T07:25:26;21.20;70.80
39665;DHT22;26679;50.872;4.332;2023-12-20T07:27:52;21.20;70.90
39665;DHT22;26679;50.872;4.332;2023-12-20T07:30:17;21.20;71.00
39665;DHT22;26679;50.872;4.332;2023-12-20T07:32:43;21.10;71.10
39665;DHT22;26679;50.872;4.332;2023-12-20T07:35:08;21.10;71.10
39665;DHT22;26679;50.872;4.332;2023-12-20T07:37:34;21.10;71.20
39665;DHT22;26679;50.872;4.332;2023-12-20T07:39:59;21.10;71.30
39665;DHT22;26679;50.872;4.332;2023-12-20T07:42:25;21.10;71.40
39665;DHT22;26679;50.872;4.332;2023-12-20T07:44:50;21.10;71.40
39665;DHT22;26679;50.872;4.332;2023-12-20T07:47:15;21.10;71.50
39665;DHT22;26679;50.872;4.332;2023-12-20T07:49:44;21.10;71.50
39665;DHT22;26679;50.872;4.332;2023-12-20T07:52:10;21.10;71.50
39665;DHT22;26679;50.872;4.332;2023-12-20T07:54:35;21.10;71.50
39665;DHT22;26679;50.872;4.332;2023-12-20T07:57:00;21.10;71.50
39665;DHT22;26679;50.872;4.332;2023-12-20T07:59:26;21.10;71.50
39665;DHT22;26679;50.872;4.332;2023-12-20T08:01:51;21.20;71.50
39665;DHT22;26679;50.872;4.332;2023-12-20T08:04:17;21.20;71.40
39665;DHT22;26679;50.872;4.332;2023-12-20T08:06:42;21.10;71.30
39665;DHT22;26679;50.872;4.332;2023-12-20T08:09:07;21.20;71.30
39665;DHT22;26679;50.872;4.332;2023-12-20T08:11:33;21.20;71.20
39665;DHT22;26679;50.872;4.332;2023-12-20T08:13:58;21.20;71.10
39665;DHT22;26679;50.872;4.332;2023-12-20T08:16:24;21.10;70.90
39665;DHT22;26679;50.872;4.332;2023-12-20T08:18:50;21.20;70.90
39665;DHT22;26679;50.872;4.332;2023-12-20T08:21:15;21.20;70.80
39665;DHT22;26679;50.872;4.332;2023-12-20T08:23:41;21.20;70.70
39665;DHT22;26679;50.872;4.332;2023-12-20T08:26:06;21.20;70.60
39665;DHT22;26679;50.872;4.332;2023-12-20T08:28:32;21.20;70.50
39665;DHT22;26679;50.872;4.332;2023-12-20T08:30:58;21.20;70.40
39665;DHT22;26679;50.872;4.332;2023-12-20T08:33:24;21.20;70.30
39665;DHT22;26679;50.872;4.332;2023-12-20T08:35:49;21.20;70.10
39665;DHT22;26679;50.872;4.332;2023-12-20T08:38:14;21.20;70.00
39665;DHT22;26679;50.872;4.332;2023-12-20T08:40:40;21.30;70.00
39665;DHT22;26679;50.872;4.332;2023-12-20T08:43:05;21.30;69.80
39665;DHT22;26679;50.872;4.332;2023-12-20T08:45:31;21.30;69.70
39665;DHT22;26679;50.872;4.332;2023-12-20T08:47:56;21.30;69.60
39665;DHT22;26679;50.872;4.332;2023-12-20T08:50:22;21.30;69.50
39665;DHT22;26679;50.872;4.332;2023-12-20T08:52:47;21.30;69.40
39665;DHT22;26679;50.872;4.332;2023-12-20T08:55:13;21.30;69.40
39665;DHT22;26679;50.872;4.332;2023-12-20T08:57:40;21.30;69.40
39665;DHT22;26679;50.872;4.332;2023-12-20T09:00:06;21.30;69.30
39665;DHT22;26679;50.872;4.332;2023-12-20T09:02:33;21.30;69.30
39665;DHT22;26679;50.872;4.332;2023-12-20T09:05:01;21.30;69.20
39665;DHT22;26679;50.872;4.332;2023-12-20T09:07:27;21.30;69.20
39665;DHT22;26679;50.872;4.332;2023-12-20T09:09:53;21.30;69.20
39665;DHT22;26679;50.872;4.332;2023-12-20T09:12:19;21.30;69.10
39665;DHT22;26679;50.872;4.332;2023-12-20T09:14:48;21.30;69.10
39665;DHT22;26679;50.872;4.332;2023-12-20T09:17:15;21.30;69.10
39665;DHT22;26679;50.872;4.332;2023-12-20T09:19:41;21.30;69.10
39665;DHT22;26679;50.872;4.332;2023-12-20T09:22:07;21.30;69.10
39665;DHT22;26679;50.872;4.332;2023-12-20T09:24:32;21.40;69.10
39665;DHT22;26679;50.872;4.332;2023-12-20T09:26:58;21.40;69.00
39665;DHT22;26679;50.872;4.332;2023-12-20T09:29:23;21.40;69.00
39665;DHT22;26679;50.872;4.332;2023-12-20T09:31:50;21.40;69.10
39665;DHT22;26679;50.872;4.332;2023-12-20T09:34:15;21.40;69.00
39665;DHT22;26679;50.872;4.332;2023-12-20T09:36:41;21.50;69.00
39665;DHT22;26679;50.872;4.332;2023-12-20T09:39:14;21.40;68.90
39665;DHT22;26679;50.872;4.332;2023-12-20T09:41:42;21.50;69.00
39665;DHT22;26679;50.872;4.332;2023-12-20T09:44:08;21.50;68.90
39665;DHT22;26679;50.872;4.332;2023-12-20T09:46:36;21.50;68.80
39665;DHT22;26679;50.872;4.332;2023-12-20T09:49:04;21.60;68.90
39665;DHT22;26679;50.872;4.332;2023-12-20T09:51:30;21.70;68.80
39665;DHT22;26679;50.872;4.332;2023-12-20T09:53:56;21.60;68.80
39665;DHT22;26679;50.872;4.332;2023-12-20T09:56:22;21.70;68.70
39665;DHT22;26679;50.872;4.332;2023-12-20T09:58:48;21.70;68.70
39665;DHT22;26679;50.872;4.332;2023-12-20T10:01:13;21.80;68.70
39665;DHT22;26679;50.872;4.332;2023-12-20T10:03:40;21.70;68.70
39665;DHT22;26679;50.872;4.332;2023-12-20T10:06:06;21.80;68.80
39665;DHT22;26679;50.872;4.332;2023-12-20T10:08:32;21.80;68.80
39665;DHT22;26679;50.872;4.332;2023-12-20T10:10:58;21.70;68.70
39665;DHT22;26679;50.872;4.332;2023-12-20T10:13:27;21.70;68.70
39665;DHT22;26679;50.872;4.332;2023-12-20T10:15:54;21.80;68.70
39665;DHT22;26679;50.872;4.332;2023-12-20T10:18:20;21.70;68.70
39665;DHT22;26679;50.872;4.332;2023-12-20T10:20:45;21.70;68.70
39665;DHT22;26679;50.872;4.332;2023-12-20T10:23:11;21.80;68.80
39665;DHT22;26679;50.872;4.332;2023-12-20T10:25:37;21.80;68.70
39665;DHT22;26679;50.872;4.332;2023-12-20T10:28:10;21.80;68.70
39665;DHT22;26679;50.872;4.332;2023-12-20T10:30:36;21.80;68.80
39665;DHT22;26679;50.872;4.332;2023-12-20T10:33:01;21.80;68.80
39665;DHT22;26679;50.872;4.332;2023-12-20T10:35:27;21.80;68.90
39665;DHT22;26679;50.872;4.332;2023-12-20T10:37:54;21.80;68.80
39665;DHT22;26679;50.872;4.332;2023-12-20T10:40:20;21.80;68.80
39665;DHT22;26679;50.872;4.332;2023-12-20T10:42:46;21.80;68.80
39665;DHT22;26679;50.872;4.332;2023-12-20T10:45:12;21.80;68.80
39665;DHT22;26679;50.872;4.332;2023-12-20T10:47:38;21.80;68.90
39665;DHT22;26679;50.872;4.332;2023-12-20T10:50:05;21.80;68.90
39665;DHT22;26679;50.872;4.332;2023-12-20T10:52:31;21.80;68.90
39665;DHT22;26679;50.872;4.332;2023-12-20T10:54:57;21.80;68.90
39665;DHT22;26679;50.872;4.332;2023-12-20T10:57:23;21.70;69.00
39665;DHT22;26679;50.872;4.332;2023-12-20T10:59:52;21.70;69.00
39665;DHT22;26679;50.872;4.332;2023-12-20T11:02:18;21.70;69.00
39665;DHT22;26679;50.872;4.332;2023-12-20T11:04:47;21.70;69.00
39665;DHT22;26679;50.872;4.332;2023-12-20T11:10:20;21.70;69.00
39665;DHT22;26679;50.872;4.332;2023-12-20T11:12:57;21.70;69.00
39665;DHT22;26679;50.872;4.332;2023-12-20T11:15:24;21.70;69.10
39665;DHT22;26679;50.872;4.332;2023-12-20T11:17:56;21.60;69.00
39665;DHT22;26679;50.872;4.332;2023-12-20T11:20:22;21.60;69.10
39665;DHT22;26679;50.872;4.332;2023-12-20T11:22:52;21.60;69.10
39665;DHT22;26679;50.872;4.332;2023-12-20T11:25:17;21.60;69.10
39665;DHT22;26679;50.872;4.332;2023-12-20T11:27:43;21.60;69.20
39665;DHT22;26679;50.872;4.332;2023-12-20T11:30:09;21.60;69.20
39665;DHT22;26679;50.872;4.332;2023-12-20T11:32:35;21.60;69.30
39665;DHT22;26679;50.872;4.332;2023-12-20T11:35:16;21.60;69.20
39665;DHT22;26679;50.872;4.332;2023-12-20T11:37:42;21.50;69.30
39665;DHT22;26679;50.872;4.332;2023-12-20T11:40:11;21.60;69.40
39665;DHT22;26679;50.872;4.332;2023-12-20T11:42:40;21.50;69.40
39665;DHT22;26679;50.872;4.332;2023-12-20T11:45:08;21.50;69.50
39665;DHT22;26679;50.872;4.332;2023-12-20T11:47:33;21.50;69.60
39665;DHT22;26679;50.872;4.332;2023-12-20T11:50:00;21.50;69.60
39665;DHT22;26679;50.872;4.332;2023-12-20T11:52:29;21.50;69.60
39665;DHT22;26679;50.872;4.332;2023-12-20T11:54:54;21.50;69.70
39665;DHT22;26679;50.872;4.332;2023-12-20T11:57:20;21.50;69.70
39665;DHT22;26679;50.872;4.332;2023-12-20T11:59:45;21.50;69.70
39665;DHT22;26679;50.872;4.332;2023-12-20T12:02:14;21.50;69.70
39665;DHT22;26679;50.872;4.332;2023-12-20T12:04:42;21.50;69.80
39665;DHT22;26679;50.872;4.332;2023-12-20T12:07:08;21.50;69.80
39665;DHT22;26679;50.872;4.332;2023-12-20T12:09:34;21.50;69.70
39665;DHT22;26679;50.872;4.332;2023-12-20T12:11:59;21.50;69.70
39665;DHT22;26679;50.872;4.332;2023-12-20T12:14:25;21.50;69.70
39665;DHT22;26679;50.872;4.332;2023-12-20T12:16:50;21.50;69.70
39665;DHT22;26679;50.872;4.332;2023-12-20T12:19:21;21.50;69.80
39665;DHT22;26679;50.872;4.332;2023-12-20T12:21:47;21.50;69.70
39665;DHT22;26679;50.872;4.332;2023-12-20T12:24:12;21.60;69.70
39665;DHT22;26679;50.872;4.332;2023-12-20T12:26:38;21.50;69.70
39665;DHT22;26679;50.872;4.332;2023-12-20T12:29:03;21.60;69.70
39665;DHT22;26679;50.872;4.332;2023-12-20T12:31:32;21.60;69.80
39665;DHT22;26679;50.872;4.332;2023-12-20T12:33:57;21.60;69.70
39665;DHT22;26679;50.872;4.332;2023-12-20T12:36:23;21.50;69.70
39665;DHT22;26679;50.872;4.332;2023-12-20T12:38:48;21.50;69.90
39665;DHT22;26679;50.872;4.332;2023-12-20T12:41:13;21.50;69.90
39665;DHT22;26679;50.872;4.332;2023-12-20T12:43:40;21.50;70.00
39665;DHT22;26679;50.872;4.332;2023-12-20T12:46:06;21.40;70.00
39665;DHT22;26679;50.872;4.332;2023-12-20T12:48:31;21.40;70.10
39665;DHT22;26679;50.872;4.332;2023-12-20T12:50:57;21.40;70.20
39665;DHT22;26679;50.872;4.332;2023-12-20T12:53:25;21.40;70.20
39665;DHT22;26679;50.872;4.332;2023-12-20T12:55:51;21.40;70.30
39665;DHT22;26679;50.872;4.332;2023-12-20T12:58:16;21.40;70.40
39665;DHT22;26679;50.872;4.332;2023-12-20T13:00:42;21.40;70.40
39665;DHT22;26679;50.872;4.332;2023-12-20T13:03:07;21.40;70.50
39665;DHT22;26679;50.872;4.332;2023-12-20T13:05:33;21.40;70.60
39665;DHT22;26679;50.872;4.332;2023-12-20T13:07:59;21.40;70.60
39665;DHT22;26679;50.872;4.332;2023-12-20T13:10:24;21.40;70.60
39665;DHT22;26679;50.872;4.332;2023-12-20T13:12:50;21.30;70.60
39665;DHT22;26679;50.872;4.332;2023-12-20T13:15:15;21.30;70.60
39665;DHT22;26679;50.872;4.332;2023-12-20T13:17:41;21.30;70.70
39665;DHT22;26679;50.872;4.332;2023-12-20T13:20:06;21.30;70.80
39665;DHT22;26679;50.872;4.332;2023-12-20T13:22:32;21.30;70.90
39665;DHT22;26679;50.872;4.332;2023-12-20T13:24:57;21.30;70.90
39665;DHT22;26679;50.872;4.332;2023-12-20T13:27:23;21.30;70.90
39665;DHT22;26679;50.872;4.332;2023-12-20T13:29:49;21.30;71.00
39665;DHT22;26679;50.872;4.332;2023-12-20T13:32:14;21.30;71.00
39665;DHT22;26679;50.872;4.332;2023-12-20T13:34:40;21.30;71.00
39665;DHT22;26679;50.872;4.332;2023-12-20T13:37:05;21.30;71.10
39665;DHT22;26679;50.872;4.332;2023-12-20T13:39:31;21.30;71.10
39665;DHT22;26679;50.872;4.332;2023-12-20T13:41:56;21.30;71.20
39665;DHT22;26679;50.872;4.332;2023-12-20T13:44:22;21.30;71.20
39665;DHT22;26679;50.872;4.332;2023-12-20T13:46:47;21.20;71.20
39665;DHT22;26679;50.872;4.332;2023-12-20T13:49:15;21.30;71.30
39665;DHT22;26679;50.872;4.332;2023-12-20T13:51:40;21.30;71.30
39665;DHT22;26679;50.872;4.332;2023-12-20T13:54:05;21.30;71.30
39665;DHT22;26679;50.872;4.332;2023-12-20T13:56:31;21.20;71.30
39665;DHT22;26679;50.872;4.332;2023-12-20T13:58:58;21.20;71.40
39665;DHT22;26679;50.872;4.332;2023-12-20T14:01:24;21.30;71.40
39665;DHT22;26679;50.872;4.332;2023-12-20T14:03:51;21.30;71.50
39665;DHT22;26679;50.872;4.332;2023-12-20T14:06:17;21.30;71.50
39665;DHT22;26679;50.872;4.332;2023-12-20T14:08:43;21.30;71.60
39665;DHT22;26679;50.872;4.332;2023-12-20T14:11:08;21.30;71.60
39665;DHT22;26679;50.872;4.332;2023-12-20T14:13:34;21.30;71.60
39665;DHT22;26679;50.872;4.332;2023-12-20T14:15:59;21.40;71.70
39665;DHT22;26679;50.872;4.332;2023-12-20T14:18:26;21.30;71.70
39665;DHT22;26679;50.872;4.332;2023-12-20T14:20:51;21.30;71.70
39665;DHT22;26679;50.872;4.332;2023-12-20T14:23:17;21.30;71.70
39665;DHT22;26679;50.872;4.332;2023-12-20T14:25:42;21.30;71.70
39665;DHT22;26679;50.872;4.332;2023-12-20T14:28:08;21.30;71.80
39665;DHT22;26679;50.872;4.332;2023-12-20T14:30:33;21.30;71.80
39665;DHT22;26679;50.872;4.332;2023-12-20T14:33:00;21.30;71.90
39665;DHT22;26679;50.872;4.332;2023-12-20T14:35:25;21.30;72.00
39665;DHT22;26679;50.872;4.332;2023-12-20T14:37:51;21.30;72.00
39665;DHT22;26679;50.872;4.332;2023-12-20T14:40:16;21.20;72.00
39665;DHT22;26679;50.872;4.332;2023-12-20T14:42:45;21.30;72.10
39665;DHT22;26679;50.872;4.332;2023-12-20T14:45:10;21.30;72.10
39665;DHT22;26679;50.872;4.332;2023-12-20T14:47:36;21.20;72.10
39665;DHT22;26679;50.872;4.332;2023-12-20T14:50:02;21.20;72.20
39665;DHT22;26679;50.872;4.332;2023-12-20T14:52:28;21.20;72.20
39665;DHT22;26679;50.872;4.332;2023-12-20T14:54:54;21.20;72.20
39665;DHT22;26679;50.872;4.332;2023-12-20T14:57:19;21.20;72.30
39665;DHT22;26679;50.872;4.332;2023-12-20T14:59:45;21.20;72.40
39665;DHT22;26679;50.872;4.332;2023-12-20T15:02:10;21.20;72.40
39665;DHT22;26679;50.872;4.332;2023-12-20T15:04:36;21.20;72.50
39665;DHT22;26679;50.872;4.332;2023-12-20T15:07:01;21.20;72.50
39665;DHT22;26679;50.872;4.332;2023-12-20T15:09:27;21.20;72.60
39665;DHT22;26679;50.872;4.332;2023-12-20T15:11:54;21.20;72.70
39665;DHT22;26679;50.872;4.332;2023-12-20T15:14:20;21.20;72.80
39665;DHT22;26679;50.872;4.332;2023-12-20T15:16:46;21.20;72.80
39665;DHT22;26679;50.872;4.332;2023-12-20T15:19:12;21.20;72.80
39665;DHT22;26679;50.872;4.332;2023-12-20T15:21:38;21.20;72.80
39665;DHT22;26679;50.872;4.332;2023-12-20T15:24:10;21.20;72.90